Durango Ski Resort, Colorado Weather observations

Data are for observation ending at time listed.
 Day   Time    Ave.   Ave.  Ave.  Vector   Max.    Total    Solar   Ave.  
  of    of     Air    Rel.  Wind   Wind    Wind   Precip.   Rad.    Soil  
Year   Day     Temp.  Hum.  Speed  Dir.    Gust                     Temp. 
2014   (PST)    F      %     mph   deg.    mph      in.     W/m2     F   
------------------------------------------------------------------------------
 211   23:30   52.7    64   10.9   320     13.3    99999.00   99999    99999.0
 211   23:40   52.7    64   10.2   320     12.5    99999.00   99999    99999.0
 211   23:50   52.4    65    9.6   320     11.6    99999.00   99999    99999.0
 212    0:00   52.3    65    9.3   311     11.6    99999.00   99999    99999.0
 212    0:10   52.2    65    9.0   305     11.6    99999.00   99999    99999.0
 212    0:20   52.0    66    8.9   307     11.6    99999.00   99999    99999.0
 212    0:30   51.7    68    9.3   311     11.6    99999.00   99999    99999.0
 212    0:40   51.7    68    7.7   308     10.3    99999.00   99999    99999.0
 212    0:50   51.8    67    7.6   311      9.9    99999.00   99999    99999.0
 212    1:00   51.9    67    7.4   311      9.5    99999.00   99999    99999.0
 212    1:10   51.7    67    7.1   312      9.9    99999.00   99999    99999.0
 212    1:20   51.9    66    7.9   313      9.9    99999.00   99999    99999.0
 212    1:30   51.7    67    9.1   311     10.8    99999.00   99999    99999.0
 212    1:40   51.3    68    9.4   313     11.2    99999.00   99999    99999.0
 212    1:50   51.4    64    7.1   317     10.3    99999.00   99999    99999.0
 212    2:00   52.0    61    5.4   322      6.5    99999.00   99999    99999.0
 212    2:10   52.1    60    1.5   322      6.1    99999.00   99999    99999.0
 212    2:20   52.2    59    0.2   342      3.9    99999.00   99999    99999.0
 212    2:30   52.1    60    0.0     0      0.0    99999.00   99999    99999.0
 212    2:40   51.7    62    0.0     0      0.0    99999.00   99999    99999.0
 212    2:50   51.3    64    0.9   350      4.4    99999.00   99999    99999.0
 212    3:00   51.0    66    0.0     0      0.0    99999.00   99999    99999.0
 212    3:10   51.1    66    0.0     0      0.0    99999.00   99999    99999.0
 212    3:20   51.3    65    1.3    17      6.5    99999.00   99999    99999.0
 212    3:30   51.5    64    0.3    19      5.2    99999.00   99999    99999.0
 212    3:40   51.5    63    0.0     0      0.0    99999.00   99999    99999.0
 212    3:50   51.6    62    1.0    19      4.4    99999.00   99999    99999.0
 212    4:00   51.8    62    0.0     0      0.0    99999.00   99999    99999.0
 212    4:10   51.9    60    0.0     0      0.0    99999.00   99999    99999.0
 212    4:20   52.3    58    0.0     0      0.0    99999.00   99999    99999.0
 212    4:30   52.3    58    0.0     0      0.0    99999.00   99999    99999.0
 212    4:40   52.2    58    0.0     0      0.0    99999.00   99999    99999.0
 212    4:50   52.1    59    0.0     0      0.0    99999.00   99999    99999.0
 212    5:00   51.6    61    2.9    69      5.2    99999.00   99999    99999.0
 212    5:10   51.6    61    5.4    95      6.5    99999.00   99999    99999.0
 212    5:20   51.4    63    5.7   127      6.9    99999.00   99999    99999.0
 212    5:30   51.5    62    4.9   127      6.1    99999.00   99999    99999.0
 212    5:40   51.5    62    5.8   132      6.5    99999.00   99999    99999.0
 212    5:50   51.2    63    5.5   158      6.5    99999.00   99999    99999.0
 212    6:00   52.0    61    5.4   158      6.1    99999.00   99999    99999.0
 212    6:10   52.7    61    1.0   158      5.7    99999.00   99999    99999.0
 212    6:20   52.6    61    2.5   163      7.8    99999.00   99999    99999.0
 212    6:30   51.2    66    4.2   174      6.1    99999.00   99999    99999.0
 212    6:40   51.2    67    2.2   174      6.1    99999.00   99999    99999.0
 212    6:50   50.5    70    3.8   182      9.5    99999.00   99999    99999.0
 212    7:00   50.4    72    3.9   184      8.2    99999.00   99999    99999.0
 212    7:10   50.2    73    2.7   184      7.4    99999.00   99999    99999.0
 212    7:20   50.1    74    0.9   184      4.4    99999.00   99999    99999.0
 212    7:30   50.4    72    0.0   184      3.5    99999.00   99999    99999.0
 212    7:40   52.5    68    0.0     0      0.0    99999.00   99999    99999.0
 212    7:50   53.0    66    0.0     0      0.0    99999.00   99999    99999.0
 212    8:00   52.6    67    0.0     0      0.0    99999.00   99999    99999.0
 212    8:10   54.7    63    0.0     0      0.0    99999.00   99999    99999.0
 212    8:20   54.9    63    0.0     0      0.0    99999.00   99999    99999.0
 212    8:30   55.1    63    0.0     0      0.0    99999.00   99999    99999.0
 212    8:40   53.0    68    0.0     0      0.0    99999.00   99999    99999.0
 212    8:50   52.6    69    0.0     0      0.0    99999.00   99999    99999.0
 212    9:00   53.6    68    0.0     0      0.0    99999.00   99999    99999.0
 212    9:10   55.2    67    0.0     0      0.0    99999.00   99999    99999.0
 212    9:20   55.5    66    0.0     0      0.0    99999.00   99999    99999.0
 212    9:30   55.9    69    0.0     0      0.0    99999.00   99999    99999.0
 212    9:40   55.3    69    1.3   182      5.7    99999.00   99999    99999.0
 212    9:50   56.0    70    0.2   187      3.9    99999.00   99999    99999.0
 212   10:00   56.0    71    0.0     0      0.0    99999.00   99999    99999.0
 212   10:10   54.7    75    0.2   206      9.1    99999.00   99999    99999.0
 212   10:20   52.5    80    4.3   176      9.5    99999.00   99999    99999.0
 212   10:30   55.0    74    3.1   180      7.4    99999.00   99999    99999.0
 212   10:40   55.2    73    4.1   195     12.1    99999.00   99999    99999.0
 212   10:50   55.9    72    2.3   194      7.8    99999.00   99999    99999.0
 212   11:00   57.5    68    1.6   176      5.7    99999.00   99999    99999.0
 212   11:10   58.9    63    1.1   174      7.4    99999.00   99999    99999.0
 212   11:20   56.1    71    2.5   177     11.2    99999.00   99999    99999.0
 212   11:30   51.3    73    6.0   271     16.3    99999.00   99999    99999.0
 212   11:40   49.4    86    7.3   235     11.6    99999.00   99999    99999.0
 212   11:50   49.9    90    6.1   228      8.2    99999.00   99999    99999.0
 212   12:00   50.7    90    8.0   285     12.5    99999.00   99999    99999.0
 212   12:10   50.6    88    6.0   293     12.5    99999.00   99999    99999.0
 212   12:20   50.7    81    3.7   251      9.5    99999.00   99999    99999.0
 212   12:30   50.3    78    6.0   310     10.3    99999.00   99999    99999.0
 212   12:40   50.3    79    6.3   305     12.9    99999.00   99999    99999.0
 212   12:50   50.1    77    7.3   317     12.1    99999.00   99999    99999.0
 212   13:00   50.6    75    3.1   312      8.6    99999.00   99999    99999.0
 212   13:10   52.7    76    1.6     8      6.1    99999.00   99999    99999.0
 212   13:20   52.7    76    1.6    35      6.1    99999.00   99999    99999.0
 212   13:30   52.9    77    4.0    48      9.1    99999.00   99999    99999.0
 212   13:40   52.6    75    2.6    75      9.9    99999.00   99999    99999.0
 212   13:50   52.4    77    1.5    76      6.1    99999.00   99999    99999.0
 212   14:00   52.1    79    0.0     0      0.0    99999.00   99999    99999.0
 212   14:10   50.6    76    7.5   339     16.3    99999.00   99999    99999.0
 212   14:20   49.8    81   10.8   340     21.9    99999.00   99999    99999.0
 212   14:30   49.0    80   13.4   313     18.5    99999.00   99999    99999.0
 212   14:40   49.6    76   14.5   322     23.1    99999.00   99999    99999.0
 212   14:50   49.6    85    9.0   292     13.3    99999.00   99999    99999.0
 212   15:00   51.5    81    6.1   309      9.5    99999.00   99999    99999.0
 212   15:10   53.4    80    5.2   297      8.2    99999.00   99999    99999.0
 212   15:20   54.2    75    7.5   304     10.8    99999.00   99999    99999.0
 212   15:30   54.4    73    6.8   318      9.9    99999.00   99999    99999.0
 212   15:40   54.6    72    8.1   320     12.5    99999.00   99999    99999.0
 212   15:50   54.8    69    9.7   323     12.9    99999.00   99999    99999.0
 212   16:00   54.9    69    8.3   325     12.9    99999.00   99999    99999.0
 212   16:10   55.2    69    8.3   312     12.5    99999.00   99999    99999.0
 212   16:20   54.9    68    9.2   305     13.3    99999.00   99999    99999.0
 212   16:30   54.8    68    9.2   306     12.9    99999.00   99999    99999.0
 212   16:40   55.3    68   10.0   309     14.6    99999.00   99999    99999.0
 212   16:50   55.3    65   12.4   311     17.6    99999.00   99999    99999.0
 212   17:00   55.3    63   14.3   316     19.3    99999.00   99999    99999.0
 212   17:10   55.5    61   12.7   309     17.6    99999.00   99999    99999.0
 212   17:20   55.7    59    9.9   305     15.0    99999.00   99999    99999.0
 212   17:30   55.9    58   10.3   309     14.2    99999.00   99999    99999.0
 212   17:40   55.9    59   10.8   320     15.5    99999.00   99999    99999.0
 212   17:50   55.9    59    9.3   311     12.1    99999.00   99999    99999.0
 212   18:00   55.7    61    8.9   305     12.1    99999.00   99999    99999.0
 212   18:10   55.7    62    6.2   295     11.6    99999.00   99999    99999.0
 212   18:20   55.4    68    0.7   287      4.8    99999.00   99999    99999.0
 212   18:30   55.1    69    0.0     0      0.0    99999.00   99999    99999.0
 212   18:40   54.8    71    0.0     0      0.0    99999.00   99999    99999.0
 212   18:50   54.5    72    0.0     0      0.0    99999.00   99999    99999.0
 212   19:00   54.2    74    2.0   210      7.8    99999.00   99999    99999.0
 212   19:10   53.8    74    5.2   209      7.4    99999.00   99999    99999.0
 212   19:20   54.0    72    4.8   209      6.9    99999.00   99999    99999.0
 212   19:30   53.5    74    5.3   211      7.4    99999.00   99999    99999.0
 212   19:40   53.8    71    5.1   212      6.5    99999.00   99999    99999.0
 212   19:50   54.2    68    3.9   214      6.5    99999.00   99999    99999.0
 212   20:00   54.1    69    0.0     0      0.0    99999.00   99999    99999.0
 212   20:10   53.0    77    0.0     0      0.0    99999.00   99999    99999.0
 212   20:20   53.3    72    0.0     0      0.0    99999.00   99999    99999.0
 212   20:30   53.9    70    0.0     0      0.0    99999.00   99999    99999.0
 212   20:40   53.8    70    0.0     0      0.0    99999.00   99999    99999.0
 212   20:50   54.2    66    0.0     0      0.0    99999.00   99999    99999.0
 212   21:00   54.6    66    0.0     0      0.0    99999.00   99999    99999.0
 212   21:10   53.3    72    0.0     0      0.0    99999.00   99999    99999.0
 212   21:20   52.8    73    0.0     0      0.0    99999.00   99999    99999.0
 212   21:30   51.3    79    5.4   176     11.2    99999.00   99999    99999.0
 212   21:40   50.1    83    9.9   171     13.8    99999.00   99999    99999.0
 212   21:50   49.1    90   10.2   167     13.8    99999.00   99999    99999.0
 212   22:00   48.7    95    9.8   164     13.8    99999.00   99999    99999.0
 212   22:10   48.6    95    9.7   164     12.9    99999.00   99999    99999.0
 212   22:20   48.4    95    9.1   170     13.8    99999.00   99999    99999.0
 212   22:30   48.1    95    7.2   160     10.3    99999.00   99999    99999.0
 212   22:40   47.9    94    8.3   166     12.1    99999.00   99999    99999.0
 212   22:50   47.6    94    7.5   171     10.3    99999.00   99999    99999.0
 212   23:00   47.4    94    6.8   170      9.9    99999.00   99999    99999.0
 212   23:10   47.3    94    6.2   172      8.6    99999.00   99999    99999.0
 212   23:20   47.2    94    6.5   171      8.2    99999.00   99999    99999.0

Return to Durango Ski Resort, Colorado graphs page.


Western Regional Climate Center,wrcc@dri.edu